Aérodrome :
LOGIN :

S'inscrire | Disclaimer

   EN    FR    IT 

 










Légende :    VFR   VFR Marginal   IFR   IFR Intensif   IFR Très Intensif
Visi : 
Plafond : 
>= 8 km
>= 3000ft
5 à 8 km
1000 à 3000 ft
1500m à 5 km
500 à 1000 ft
800 à 1500m
200 à 500 ft
< 800m
< 200 ft
Symboles :   Orages  Brouillard  Fortes neiges  Fortes précipitations  Vent > 20 kt
SIGMETs :   Divers  Orages  Givrage  Turbulence  Onde Orograph.  Cendres Volcan.







- Altitude de l'aérodrome : 529 ft
- Code IATA : CHR
- Voir les cartes d'approche


LFLX - Chateauroux

DERNIER METAR :
  • 180630Z AUTO 22008KT 9999 SCT007 BKN035 BKN100 18/17 Q1017 TEMPO 4000 -RA BKN006 SCT020TCU

METARs EXPIRÉS :
  • 180600Z AUTO 21009KT 9999 OVC006 18/17 Q1017 BECMG BKN014
  • 180530Z AUTO 21008KT 9999 BKN006 OVC110 18/17 Q1017 BECMG BKN014
  • 180500Z AUTO 22008KT 9999 SCT008 BKN110 18/17 Q1017 BECMG BKN012
  • 180430Z AUTO 21008KT CAVOK 18/17 Q1017 BECMG BKN012
  • 180400Z AUTO 20007KT CAVOK 18/17 Q1017 BECMG BKN012

TAF AMD TAF LFLX
Valide du 18 à 06h jusqu'au 19 à 12h UTC


180606Z 1806/1912 22008KT CAVOK
BECMG 1806/1808 BKN014
TEMPO 1806/1813 4000 -RA BKN006 SCT020TCU
PROB30
TEMPO 1809/1816 24012G25KT 2000 SHRA SCT015CB
TEMPO 1816/1819 SCT015TCU
BECMG 1821/1824 BKN035
PROB30
TEMPO 1903/1906 25003KT 0800 BCFG BKN003
BECMG 1907/1909 32005KT SCT030
Pas de NOTAMs connus pour ce terrain.



MET'MAP, la Météo Aéronautique d'un coup d'oeil ! - Copyright ORBIFLY Décembre 2007 - Disclaimer

ORBIFLY MET'MAP TEAM :

Programmation & Développement : Alexandra Zaïnal
Conception & Développement : Baudouin d'Aumeries
Co-Programmation & Développement : Marc-Olivier Méhu
Soutien technique & logistique : Manuel Goepfert

Contact : metmap@orbifly.com




SOURCES & CREDITS :

   NOAA